KOOA/OOA METAR and TAF weather

Enter ICAO airport designator
Station Type Date Time Source
KOOA METAR 2019/12/09 00:35 UTC NOAA

KOOA 090035Z AUTO 00000KT 10SM OVC023 08/05 A2973 RMK AO2 T00790054


Station Type Date Time Source
KOOA Decoded METAR 2019/12/09 00:35 UTC NOAA

Oskaloosa, Oskaloosa Municipal Airport, IA, United States (KOOA) 41-13-34N 092-29-37W
Dec 08, 2019 - 07:35 PM EST / 2019.12.09 0035 UTC
Wind: Calm:0
Visibility: 10 mile(s):0
Sky conditions: overcast
Temperature: 46.2 F (7.9 C)
Dew Point: 41.7 F (5.4 C)
Relative Humidity: 84%
Pressure (altimeter): 29.73 in. Hg (1006 hPa)
ob: KOOA 090035Z AUTO 00000KT 10SM OVC023 08/05 A2973 RMK AO2 T00790054
cycle: 0

Station Type Date Time Source
KOOA TAF UTC NOAA

Error!

Example: see airport list